Terminal Aerodrome Forecast
Issued by NWS Huntsville, AL

Home | Current Version | Previous Version | Text Only | Print | Product List | Glossary On
Versions: 1 2 3 4 5 6 7 8 9 10 11 12 13 14 15 16 17 18 19 20 21 22 23 24 25 26 27 28 29
280
FTUS44 KHUN 242331
TAFMSL
TAF
KMSL 242331Z 2500/2524 VRB04KT P6SM SCT025
      TEMPO 2500/2502 BKN025
     FM250500 00000KT 4SM BR SCT010
      TEMPO 2509/2512 2SM BR SCT004
     FM251400 24007KT P6SM SCT250=

USA.gov is the U.S. government's official web portal to all federal, state and local government web resources and services.